Other Surface Observations
Issued by NWS Missoula, MT

Home | Current Version | Previous Version | Text Only | Print | Product List | Glossary On
Versions: 1 2 3 4 5 6 7 8 9 10 11 12 13 14 15 16 17 18 19 20 21 22 23 24 25 26 27 28 29 30 31 32 33 34 35 36 37 38 39 40 41 42 43 44 45 46 47 48 49 50
658
SXUS55 KMSO 240643
OSOMSO
MONTANA AWOS SUMMARY
NATIONAL WEATHER SERVICE MISSOULA MT
1243 AM MDT SUN JUL 24 2016

Montana AWOS Reports

LAUREL      |K6S8 240635Z AUTO 00000KT 40SM 17/08 A3010 RMK AO1 T01670083
TWIN BRIDGES|K7S1 240635Z AUTO 36010G15KT 40SM 18/01 A3015 RMK AO1 T01830006
ROUNDUP     |KRPX 240635Z AUTO 20005KT 40SM 16/07 A3002 RMK AO1 T01560072




USA.gov is the U.S. government's official web portal to all federal, state and local government web resources and services.